createdAt,value
2019-02-21T00:02:21.084Z,30.08
2019-02-21T00:04:49.576Z,28.40
2019-02-21T00:07:18.426Z,28.92
2019-02-21T00:09:47.039Z,28.90
2019-02-21T00:12:15.665Z,28.30
2019-02-21T00:14:44.236Z,30.32
2019-02-21T00:17:12.864Z,26.33
2019-02-21T00:19:41.486Z,26.95
2019-02-21T00:22:10.145Z,26.87
2019-02-21T00:24:40.038Z,31.10
2019-02-21T00:27:08.588Z,28.42
2019-02-21T00:29:37.476Z,31.10
2019-02-21T00:32:06.098Z,32.58
2019-02-21T00:34:34.652Z,29.40
2019-02-21T00:37:03.173Z,27.70
2019-02-21T00:39:31.807Z,34.35
2019-02-21T00:42:00.377Z,34.38
2019-02-21T00:44:29.046Z,32.90
2019-02-21T00:46:57.681Z,38.00
2019-02-21T00:49:26.159Z,40.60
2019-02-21T00:51:54.698Z,42.90
2019-02-21T00:54:23.326Z,40.23
2019-02-21T00:56:51.952Z,41.20
2019-02-21T00:59:20.488Z,35.20
2019-02-21T01:01:49.112Z,35.45
2019-02-21T01:04:17.803Z,30.82
2019-02-21T01:06:46.428Z,32.58
2019-02-21T01:09:15.260Z,33.78
2019-02-21T01:11:43.740Z,40.95
2019-02-21T01:14:12.466Z,35.38
2019-02-21T01:16:41.090Z,38.42
2019-02-21T01:19:09.570Z,31.95
2019-02-21T01:21:38.254Z,39.65
2019-02-21T01:24:06.787Z,33.00
2019-02-21T01:26:35.278Z,36.73
2019-02-21T01:29:03.949Z,35.23
2019-02-21T01:31:32.579Z,29.72
2019-02-21T01:34:01.069Z,37.80
2019-02-21T01:36:29.597Z,32.35
2019-02-21T01:38:59.097Z,32.70
2019-02-21T01:41:27.738Z,34.27
2019-02-21T01:43:56.278Z,31.05
2019-02-21T01:46:24.765Z,29.37
2019-02-21T01:48:53.391Z,31.90
2019-02-21T01:51:22.226Z,28.32
2019-02-21T01:53:50.788Z,29.52
2019-02-21T01:56:19.391Z,30.20
2019-02-21T01:58:48.037Z,30.13
2019-02-21T02:01:16.718Z,27.02
2019-02-21T02:03:45.278Z,28.70
2019-02-21T02:06:13.906Z,28.05
2019-02-21T02:08:42.574Z,28.98
2019-02-21T02:11:13.922Z,32.08
2019-02-21T02:13:42.444Z,29.63
2019-02-21T02:16:11.363Z,27.82
2019-02-21T02:18:39.981Z,27.67
2019-02-21T02:21:08.616Z,34.85
2019-02-21T02:23:37.159Z,28.52
2019-02-21T02:26:05.701Z,35.38
2019-02-21T02:28:34.335Z,28.70
2019-02-21T02:31:02.992Z,29.65
2019-02-21T02:33:31.733Z,34.50
2019-02-21T02:36:00.232Z,34.23
2019-02-21T02:38:29.132Z,36.07
2019-02-21T02:40:57.641Z,32.50
2019-02-21T02:43:26.346Z,30.00
2019-02-21T02:45:55.282Z,29.52
2019-02-21T02:48:23.843Z,27.13
2019-02-21T02:50:52.326Z,28.77
2019-02-21T02:53:21.232Z,29.27
2019-02-21T02:55:49.870Z,30.82
2019-02-21T02:58:18.365Z,27.45
2019-02-21T03:00:46.893Z,27.48
2019-02-21T03:03:15.515Z,27.85
2019-02-21T03:05:44.144Z,24.37
2019-02-21T03:08:12.933Z,25.27
2019-02-21T03:10:41.420Z,26.17
2019-02-21T03:13:10.552Z,28.12
2019-02-21T03:15:39.222Z,26.07
2019-02-21T03:18:07.693Z,29.12
2019-02-21T03:20:36.326Z,27.58
2019-02-21T03:23:05.145Z,26.42
2019-02-21T03:25:33.715Z,30.00
2019-02-21T03:28:02.367Z,28.23
2019-02-21T03:30:31.052Z,28.47
2019-02-21T03:32:59.609Z,29.85
2019-02-21T03:35:28.116Z,33.13
2019-02-21T03:37:56.795Z,41.37
2019-02-21T03:40:25.423Z,28.87
2019-02-21T03:42:54.092Z,24.83
2019-02-21T03:45:22.608Z,35.00
2019-02-21T03:47:51.247Z,30.62
2019-02-21T03:50:19.903Z,30.60
2019-02-21T03:52:48.384Z,31.10
2019-02-21T03:55:17.009Z,30.80
2019-02-21T03:57:45.670Z,28.03
2019-02-21T04:00:14.372Z,24.33
2019-02-21T04:02:43.105Z,25.03
2019-02-21T04:05:11.743Z,21.10
2019-02-21T04:07:40.304Z,19.15
2019-02-21T04:10:09.732Z,26.53
2019-02-21T04:12:38.400Z,19.00
2019-02-21T04:15:09.298Z,27.00
2019-02-21T04:17:37.928Z,24.33
2019-02-21T04:20:07.542Z,22.10
2019-02-21T04:22:36.163Z,20.43
2019-02-21T04:25:06.698Z,20.52
2019-02-21T04:27:35.266Z,18.43
2019-02-21T04:30:04.264Z,14.60
2019-02-21T04:32:32.974Z,15.93
2019-02-21T04:35:01.638Z,25.60
2019-02-21T04:37:30.203Z,22.17
2019-02-21T04:39:58.833Z,31.63
2019-02-21T04:42:27.575Z,22.98
2019-02-21T04:44:56.151Z,23.37
2019-02-21T04:47:24.764Z,26.87
2019-02-21T04:49:56.495Z,27.85
2019-02-21T04:52:24.973Z,35.20
2019-02-21T04:54:53.468Z,24.23
2019-02-21T04:57:22.139Z,21.63
2019-02-21T04:59:50.765Z,23.87
2019-02-21T05:02:28.602Z,22.73
2019-02-21T05:04:49.575Z,32.27
2019-02-21T05:07:18.285Z,25.43
2019-02-21T05:09:57.641Z,40.37
2019-02-21T05:12:17.236Z,27.33
2019-02-21T05:14:45.722Z,20.03
2019-02-21T05:17:14.367Z,27.77
2019-02-21T05:19:43.034Z,28.00
2019-02-21T05:22:11.665Z,39.47
2019-02-21T05:24:40.285Z,31.70
2019-02-21T05:27:19.316Z,28.73
2019-02-21T05:29:47.887Z,35.13
2019-02-21T05:32:24.426Z,36.10
2019-02-21T05:34:57.863Z,38.37
2019-02-21T05:37:34.008Z,36.67
2019-02-21T05:40:07.116Z,44.83
2019-02-21T05:42:49.465Z,30.43
2019-02-21T05:45:19.815Z,23.53
2019-02-21T05:47:52.867Z,39.07
2019-02-21T05:50:23.220Z,31.03
2019-02-21T05:53:05.758Z,29.07
2019-02-21T05:55:36.114Z,31.17
2019-02-21T05:58:06.305Z,32.30
2019-02-21T06:00:37.042Z,37.93
2019-02-21T06:03:10.948Z,33.45
2019-02-21T06:05:49.971Z,27.65
2019-02-21T06:08:29.265Z,34.25
2019-02-21T06:10:59.520Z,30.17
2019-02-21T06:13:29.654Z,28.07
2019-02-21T06:15:59.900Z,24.02
2019-02-21T06:18:30.315Z,29.60
2019-02-21T06:21:00.620Z,30.60
2019-02-21T06:23:30.939Z,27.52
2019-02-21T06:26:01.439Z,28.52
2019-02-21T06:28:34.675Z,31.70
2019-02-21T06:31:04.982Z,32.45
2019-02-21T06:33:33.576Z,26.90
2019-02-21T06:36:02.127Z,23.95
2019-02-21T06:38:33.527Z,25.20
2019-02-21T06:41:01.298Z,29.07
2019-02-21T06:43:29.929Z,22.50
2019-02-21T06:45:58.616Z,34.08
2019-02-21T06:48:27.081Z,27.75
2019-02-21T06:50:55.582Z,35.90
2019-02-21T06:53:24.252Z,26.62
2019-02-21T06:55:52.878Z,44.48
2019-02-21T06:58:21.370Z,29.98
2019-02-21T07:00:50.097Z,22.07
2019-02-21T07:03:18.740Z,37.08
2019-02-21T07:05:47.433Z,28.42
2019-02-21T07:08:16.137Z,31.48
2019-02-21T07:10:44.627Z,32.10
2019-02-21T07:13:13.281Z,27.52
2019-02-21T07:15:42.136Z,21.40
2019-02-21T07:18:11.215Z,70.97
2019-02-21T07:20:39.903Z,23.85
2019-02-21T07:23:11.093Z,47.10
2019-02-21T07:25:40.651Z,130.90
2019-02-21T07:28:12.526Z,213.82
2019-02-21T07:30:39.852Z,113.57
2019-02-21T07:33:08.549Z,50.63
2019-02-21T07:35:37.183Z,41.23
2019-02-21T07:38:08.855Z,29.00
2019-02-21T07:40:37.359Z,37.20
2019-02-21T07:43:05.997Z,26.55
2019-02-21T07:45:36.329Z,25.85
2019-02-21T07:48:05.170Z,25.52
2019-02-21T07:50:33.753Z,32.58
2019-02-21T07:53:03.058Z,30.30
2019-02-21T07:55:31.772Z,22.62
2019-02-21T07:58:00.400Z,32.63
2019-02-21T08:00:29.220Z,41.68
2019-02-21T08:02:57.815Z,29.05
2019-02-21T08:05:26.472Z,29.18
2019-02-21T08:07:55.282Z,26.68
2019-02-21T08:10:33.263Z,38.20
2019-02-21T08:12:54.193Z,24.72
2019-02-21T08:15:22.782Z,27.48
2019-02-21T08:17:51.418Z,33.15
2019-02-21T08:20:20.061Z,26.65
2019-02-21T08:22:48.909Z,28.50
2019-02-21T08:25:19.296Z,25.15
2019-02-21T08:27:47.846Z,27.50
2019-02-21T08:30:16.526Z,42.17
2019-02-21T08:32:58.465Z,27.70
2019-02-21T08:35:27.374Z,37.30
2019-02-21T08:37:56.005Z,35.80
2019-02-21T08:40:25.180Z,42.00
2019-02-21T08:42:54.034Z,30.27
2019-02-21T08:45:22.662Z,33.10
2019-02-21T08:47:51.158Z,26.97
2019-02-21T08:50:22.095Z,19.32
2019-02-21T08:52:50.373Z,18.77
2019-02-21T08:55:18.997Z,20.55
2019-02-21T08:57:47.841Z,15.15
2019-02-21T09:00:17.285Z,24.12
2019-02-21T09:02:45.919Z,33.58
2019-02-21T09:05:15.689Z,18.95
2019-02-21T09:07:46.476Z,17.70
2019-02-21T09:10:14.669Z,22.20
2019-02-21T09:12:47.784Z,19.67
2019-02-21T09:15:16.554Z,16.05
2019-02-21T09:17:45.122Z,14.40
2019-02-21T09:20:13.795Z,12.53
2019-02-21T09:22:42.429Z,15.23
2019-02-21T09:25:12.646Z,16.35
2019-02-21T09:27:41.553Z,20.52
2019-02-21T09:30:17.907Z,39.38
2019-02-21T09:32:46.833Z,26.42
2019-02-21T09:35:15.398Z,24.05
2019-02-21T09:37:44.012Z,15.13
2019-02-21T09:40:15.709Z,25.08
2019-02-21T09:42:44.193Z,28.70
2019-02-21T09:45:15.320Z,16.65
2019-02-21T09:47:44.071Z,12.88
2019-02-21T09:50:12.672Z,14.75
2019-02-21T09:52:41.280Z,16.12
2019-02-21T09:55:11.904Z,12.45
2019-02-21T09:57:40.543Z,17.45
2019-02-21T10:00:20.137Z,15.32
2019-02-21T10:02:48.753Z,14.23
2019-02-21T10:05:17.381Z,14.65
2019-02-21T10:07:46.028Z,18.05
2019-02-21T10:10:16.551Z,16.17
2019-02-21T10:12:45.339Z,21.93
2019-02-21T10:15:15.272Z,24.82
2019-02-21T10:17:44.001Z,24.05
2019-02-21T10:20:17.645Z,12.03
2019-02-21T10:22:46.274Z,17.65
2019-02-21T10:25:17.939Z,17.82
2019-02-21T10:27:46.506Z,11.45
2019-02-21T10:30:17.228Z,12.75
2019-02-21T10:32:45.884Z,11.35
2019-02-21T10:35:14.511Z,8.48
2019-02-21T10:37:43.070Z,18.12
2019-02-21T10:40:13.437Z,20.32
2019-02-21T10:42:42.087Z,10.80
2019-02-21T10:45:15.255Z,34.73
2019-02-21T10:47:44.114Z,14.60
2019-02-21T10:50:18.812Z,10.38
2019-02-21T10:52:47.856Z,13.15
2019-02-21T10:55:17.484Z,18.15
2019-02-21T10:57:46.124Z,25.75
2019-02-21T11:00:17.522Z,11.33
2019-02-21T11:02:46.140Z,12.95
2019-02-21T11:05:14.696Z,14.58
2019-02-21T11:07:43.348Z,15.05
2019-02-21T11:10:14.953Z,15.00
2019-02-21T11:12:43.531Z,16.40
2019-02-21T11:15:14.468Z,15.70
2019-02-21T11:17:43.163Z,13.15
2019-02-21T11:20:17.012Z,39.75
2019-02-21T11:22:54.660Z,16.95
2019-02-21T11:25:23.274Z,15.53
2019-02-21T11:27:52.061Z,18.62
2019-02-21T11:30:21.599Z,14.07
2019-02-21T11:32:50.220Z,17.67
2019-02-21T11:35:19.025Z,12.80
2019-02-21T11:37:47.804Z,13.65
2019-02-21T11:40:17.588Z,18.85
2019-02-21T11:42:46.541Z,13.08
2019-02-21T11:45:19.645Z,14.45
2019-02-21T11:47:48.216Z,12.63
2019-02-21T11:50:20.355Z,14.28
2019-02-21T11:52:48.976Z,20.23
2019-02-21T11:55:28.216Z,17.50
2019-02-21T11:57:56.782Z,10.38
2019-02-21T12:00:27.208Z,9.95
2019-02-21T12:02:55.820Z,17.75
2019-02-21T12:05:32.267Z,11.80
2019-02-21T12:07:55.015Z,12.07
2019-02-21T12:10:23.830Z,14.55
2019-02-21T12:12:52.384Z,9.70
2019-02-21T12:15:21.016Z,20.12
2019-02-21T12:17:49.663Z,9.08
2019-02-21T12:20:19.491Z,11.90
2019-02-21T12:22:48.317Z,16.67
2019-02-21T12:25:19.379Z,12.18
2019-02-21T12:27:48.006Z,16.97
2019-02-21T12:30:18.245Z,21.07
2019-02-21T12:32:47.280Z,15.75
2019-02-21T12:35:16.145Z,13.48
2019-02-21T12:37:44.770Z,30.90
2019-02-21T12:40:21.963Z,10.45
2019-02-21T12:42:50.603Z,13.10
2019-02-21T12:45:26.706Z,8.13
2019-02-21T12:47:55.336Z,12.15
2019-02-21T12:50:23.957Z,10.03
2019-02-21T12:52:52.488Z,8.20
2019-02-21T12:55:28.169Z,9.70
2019-02-21T12:57:51.406Z,17.45
2019-02-21T13:00:21.243Z,10.00
2019-02-21T13:02:49.781Z,20.23
2019-02-21T13:05:18.407Z,17.45
2019-02-21T13:07:47.175Z,17.67
2019-02-21T13:10:18.455Z,11.15
2019-02-21T13:12:47.012Z,9.58
2019-02-21T13:15:16.313Z,19.23
2019-02-21T13:17:44.954Z,14.23
2019-02-21T13:20:14.773Z,15.13
2019-02-21T13:22:43.471Z,11.65
2019-02-21T13:25:13.746Z,9.13
2019-02-21T13:27:42.551Z,8.98
2019-02-21T13:30:18.263Z,7.50
2019-02-21T13:32:46.873Z,9.40
2019-02-21T13:35:15.595Z,19.10
2019-02-21T13:37:44.239Z,22.20
2019-02-21T13:40:17.457Z,13.65
2019-02-21T13:42:46.078Z,15.78
2019-02-21T13:45:17.531Z,9.03
2019-02-21T13:47:46.349Z,5.92
2019-02-21T13:50:17.435Z,6.80
2019-02-21T13:52:46.125Z,11.63
2019-02-21T13:55:14.760Z,12.33
2019-02-21T13:57:43.381Z,6.12
2019-02-21T14:00:19.928Z,11.97
2019-02-21T14:02:48.540Z,8.88
2019-02-21T14:05:17.109Z,8.70
2019-02-21T14:07:45.932Z,8.13
2019-02-21T14:10:15.061Z,12.13
2019-02-21T14:12:43.596Z,9.28
2019-02-21T14:15:24.797Z,10.10
2019-02-21T14:17:53.422Z,11.83
2019-02-21T14:20:22.050Z,19.05
2019-02-21T14:22:50.642Z,14.00
2019-02-21T14:25:19.266Z,10.80
2019-02-21T14:27:47.897Z,12.50
2019-02-21T14:30:23.560Z,10.72
2019-02-21T14:32:52.179Z,11.05
2019-02-21T14:35:20.911Z,12.88
2019-02-21T14:37:49.715Z,13.15
2019-02-21T14:40:18.479Z,21.80
2019-02-21T14:42:47.091Z,9.53
2019-02-21T14:45:24.403Z,12.95
2019-02-21T14:47:52.937Z,17.27
2019-02-21T14:50:21.489Z,25.82
2019-02-21T14:52:50.162Z,20.08
2019-02-21T14:55:18.793Z,15.75
2019-02-21T14:57:47.358Z,19.02
2019-02-21T15:00:18.541Z,19.32
2019-02-21T15:02:49.861Z,17.92
2019-02-21T15:05:19.292Z,14.75
2019-02-21T15:07:48.193Z,10.23
2019-02-21T15:10:16.824Z,14.58
2019-02-21T15:12:45.438Z,12.82
2019-02-21T15:15:26.000Z,8.35
2019-02-21T15:17:54.655Z,10.30
2019-02-21T15:20:23.271Z,6.42
2019-02-21T15:22:53.855Z,14.73
2019-02-21T15:25:22.152Z,12.50
2019-02-21T15:27:50.776Z,8.15
2019-02-21T15:30:26.327Z,7.90
2019-02-21T15:32:54.933Z,9.50
2019-02-21T15:35:23.706Z,18.05
2019-02-21T15:37:52.379Z,11.30
2019-02-21T15:40:20.995Z,8.15
2019-02-21T15:42:52.427Z,13.15
2019-02-21T15:45:24.989Z,8.58
2019-02-21T15:47:53.671Z,19.87
2019-02-21T15:50:22.286Z,17.48
2019-02-21T15:52:52.460Z,14.10
2019-02-21T15:55:22.090Z,17.95
2019-02-21T15:58:00.530Z,18.95
2019-02-21T16:00:22.518Z,15.72
2019-02-21T16:02:51.165Z,20.75
2019-02-21T16:05:19.805Z,21.17
2019-02-21T16:07:48.336Z,29.32
2019-02-21T16:10:25.229Z,29.70
2019-02-21T16:12:54.053Z,25.35
2019-02-21T16:15:23.008Z,18.65
2019-02-21T16:17:51.527Z,21.85
2019-02-21T16:20:21.081Z,25.37
2019-02-21T16:22:49.757Z,24.43
2019-02-21T16:25:21.020Z,33.48
2019-02-21T16:27:49.616Z,41.98
2019-02-21T16:30:18.240Z,52.95
2019-02-21T16:32:46.879Z,55.88
2019-02-21T16:35:15.867Z,49.63
2019-02-21T16:37:44.510Z,47.35
2019-02-21T16:40:20.753Z,56.70
2019-02-21T16:42:49.391Z,52.50
2019-02-21T16:45:20.953Z,56.48
2019-02-21T16:47:49.617Z,61.08
2019-02-21T16:50:29.145Z,66.90
2019-02-21T16:52:48.739Z,68.52
2019-02-21T16:55:22.855Z,60.25
2019-02-21T16:57:51.482Z,53.05
2019-02-21T17:00:22.150Z,49.95
2019-02-21T17:02:50.740Z,33.85
2019-02-21T17:05:19.366Z,28.35
2019-02-21T17:07:47.984Z,27.77
2019-02-21T17:10:17.646Z,18.57
2019-02-21T17:12:46.277Z,21.62
2019-02-21T17:15:18.572Z,26.33
2019-02-21T17:17:47.257Z,20.92
2019-02-21T17:20:17.857Z,25.90
2019-02-21T17:22:46.470Z,21.85
2019-02-21T17:25:16.166Z,33.67
2019-02-21T17:27:45.790Z,28.10
2019-02-21T17:30:19.318Z,22.77
2019-02-21T17:32:48.118Z,22.52
2019-02-21T17:35:16.749Z,24.12
2019-02-21T17:37:45.514Z,26.75
2019-02-21T17:40:19.895Z,29.52
2019-02-21T17:42:48.522Z,20.72
2019-02-21T17:45:17.264Z,24.95
2019-02-21T17:47:45.946Z,24.98
2019-02-21T17:50:16.697Z,22.02
2019-02-21T17:52:45.329Z,21.02
2019-02-21T17:55:14.764Z,21.77
2019-02-21T17:57:43.695Z,22.52
2019-02-21T18:00:24.631Z,20.52
2019-02-21T18:02:53.261Z,24.67
2019-02-21T18:05:21.885Z,15.10
2019-02-21T18:07:50.551Z,23.75
2019-02-21T18:10:19.275Z,19.20
2019-02-21T18:12:47.908Z,17.87
2019-02-21T18:15:17.877Z,21.07
2019-02-21T18:17:46.513Z,20.97
2019-02-21T18:20:15.828Z,20.52
2019-02-21T18:22:44.606Z,22.80
2019-02-21T18:25:19.297Z,26.02
2019-02-21T18:27:47.895Z,22.58
2019-02-21T18:30:17.438Z,23.52
2019-02-21T18:32:46.118Z,22.75
2019-02-21T18:35:15.079Z,17.25
2019-02-21T18:37:47.396Z,20.52
2019-02-21T18:40:20.875Z,18.02
2019-02-21T18:42:49.673Z,19.32
2019-02-21T18:45:18.289Z,23.73
2019-02-21T18:47:46.946Z,21.52
2019-02-21T18:50:15.771Z,22.58
2019-02-21T18:52:53.465Z,21.62
2019-02-21T18:55:22.090Z,24.15
2019-02-21T18:57:50.723Z,29.42
2019-02-21T19:00:24.891Z,27.48
2019-02-21T19:02:53.525Z,29.60
2019-02-21T19:05:22.465Z,28.00
2019-02-21T19:08:02.125Z,22.75
2019-02-21T19:10:22.892Z,26.02
2019-02-21T19:12:51.473Z,20.02
2019-02-21T19:15:21.274Z,19.07
2019-02-21T19:17:49.896Z,22.65
2019-02-21T19:20:20.045Z,25.05
2019-02-21T19:22:48.706Z,27.55
2019-02-21T19:25:17.635Z,23.73
2019-02-21T19:27:46.258Z,22.50
2019-02-21T19:30:36.006Z,26.40
2019-02-21T19:33:04.732Z,27.20
2019-02-21T19:35:33.468Z,25.32
2019-02-21T19:38:09.933Z,22.17
2019-02-21T19:40:32.432Z,28.32
2019-02-21T19:43:01.047Z,23.02
2019-02-21T19:45:29.811Z,24.82
2019-02-21T19:47:58.297Z,21.05
2019-02-21T19:50:27.007Z,24.70
2019-02-21T19:52:55.887Z,22.17
2019-02-21T19:55:24.514Z,19.90
2019-02-21T19:57:52.992Z,23.75
2019-02-21T20:00:27.584Z,23.85
2019-02-21T20:02:56.144Z,22.70
2019-02-21T20:05:24.765Z,17.70
2019-02-21T20:07:53.658Z,23.52
2019-02-21T20:10:22.488Z,20.00
2019-02-21T20:12:51.063Z,31.52
2019-02-21T20:15:19.732Z,20.15
2019-02-21T20:17:48.366Z,17.92
2019-02-21T20:20:22.366Z,18.10
2019-02-21T20:22:50.922Z,18.35
2019-02-21T20:25:19.511Z,26.77
2019-02-21T20:27:48.206Z,21.85
2019-02-21T20:30:18.762Z,26.17
2019-02-21T20:32:47.489Z,20.77
2019-02-21T20:35:16.065Z,23.42
2019-02-21T20:37:44.732Z,23.02
2019-02-21T20:40:13.565Z,21.87
2019-02-21T20:42:42.203Z,17.15
2019-02-21T20:45:14.974Z,22.20
2019-02-21T20:47:43.627Z,20.35
2019-02-21T20:50:13.839Z,26.90
2019-02-21T20:52:42.502Z,19.50
2019-02-21T20:55:11.922Z,18.52
2019-02-21T20:57:40.549Z,17.17
2019-02-21T21:00:14.807Z,23.18
2019-02-21T21:02:43.843Z,23.92
2019-02-21T21:05:12.781Z,21.65
2019-02-21T21:07:41.456Z,16.57
2019-02-21T21:10:13.058Z,21.27
2019-02-21T21:12:41.699Z,17.60
2019-02-21T21:15:11.961Z,19.50
2019-02-21T21:17:40.593Z,23.30
2019-02-21T21:20:16.771Z,18.77
2019-02-21T21:22:44.484Z,20.23
2019-02-21T21:25:18.110Z,22.10
2019-02-21T21:27:46.721Z,24.57
2019-02-21T21:30:16.703Z,24.47
2019-02-21T21:32:45.437Z,25.37
2019-02-21T21:35:14.372Z,29.45
2019-02-21T21:37:43.280Z,34.50
2019-02-21T21:40:14.596Z,30.12
2019-02-21T21:42:43.209Z,25.05
2019-02-21T21:45:14.734Z,25.02
2019-02-21T21:47:43.370Z,25.92
2019-02-21T21:50:14.924Z,21.68
2019-02-21T21:52:43.729Z,14.78
2019-02-21T21:55:12.354Z,22.13
2019-02-21T21:57:40.981Z,19.62
2019-02-21T22:00:18.744Z,20.17
2019-02-21T22:02:48.818Z,17.70
2019-02-21T22:05:17.431Z,14.45
2019-02-21T22:07:46.134Z,15.35
2019-02-21T22:10:15.746Z,18.30
2019-02-21T22:12:44.372Z,13.60
2019-02-21T22:15:15.344Z,16.95
2019-02-21T22:17:43.899Z,13.80
2019-02-21T22:20:12.526Z,16.77
2019-02-21T22:22:41.196Z,15.32
2019-02-21T22:25:11.725Z,13.70
2019-02-21T22:27:40.336Z,15.28
2019-02-21T22:30:14.514Z,18.65
2019-02-21T22:32:43.145Z,10.88
2019-02-21T22:35:11.782Z,14.00
2019-02-21T22:37:40.488Z,14.58
2019-02-21T22:40:18.262Z,15.30
2019-02-21T22:42:46.969Z,14.50
2019-02-21T22:45:15.530Z,16.55
2019-02-21T22:47:44.169Z,18.75
2019-02-21T22:50:18.369Z,13.98
2019-02-21T22:52:46.930Z,14.68
2019-02-21T22:55:15.550Z,12.25
2019-02-21T22:57:44.224Z,15.25
2019-02-21T23:00:36.904Z,14.23
2019-02-21T23:03:09.102Z,15.90
2019-02-21T23:05:58.717Z,14.25
2019-02-21T23:08:41.702Z,17.23
2019-02-21T23:11:10.568Z,14.90
2019-02-21T23:13:39.206Z,15.88
2019-02-21T23:16:08.167Z,14.03
2019-02-21T23:18:36.790Z,18.10
2019-02-21T23:21:05.703Z,14.70
2019-02-21T23:23:34.303Z,17.05
2019-02-21T23:26:02.855Z,18.65
2019-02-21T23:28:31.478Z,21.05
2019-02-21T23:31:00.496Z,15.13
2019-02-21T23:33:30.298Z,14.63
2019-02-21T23:35:58.788Z,13.15
2019-02-21T23:38:27.430Z,14.40
2019-02-21T23:40:56.047Z,16.97
2019-02-21T23:43:24.639Z,17.23
2019-02-21T23:45:53.205Z,17.20
2019-02-21T23:48:21.881Z,13.77
2019-02-21T23:50:50.547Z,16.37
2019-02-21T23:53:19.054Z,15.83
2019-02-21T23:55:47.624Z,18.20
2019-02-21T23:58:16.444Z,18.27
